首页
METAR-TAF:

METAR-TAF

机场 :

武汉, 中华人民共和国

武汉天河国际机场

纬度: 30-37N, 经度: 114-08E, 海拔: 23米

当前天气观测

该预报发布于42分钟前的05:00 UTC
风速4节,风向西,在西南西北之间变化
温度 10°C
湿度 62%
气压 1026 hPa
能見度: 4500
散云层高于3000英尺

METAR: ZHHH 250500Z 26002MPS 220V320 4500 HZ SCT030 10/03 Q1026 NOSIG

时间: 13:42 (05:42 UTC)

预报

该预报发布于4小时和27分钟前的01:15 UTC
预报有效从25日的 06点(UTC)到 26日的 06点(UTC)
风速6节,风向北转东北
能見度: 5000

TAF: ZHHH 250115Z 2506/2606 02003MPS 5000 HZ NSC TX14/2507Z TN05/2522Z

超过4000个机场的气象观测和天气预报(METAR&TAF报告)。

可查询的气象台以黄色和红色小点在地图上表示。

将鼠标移到小点上方,可查看气象台名称。

然后点击查看天气观测和预报。

如需切换地图:点击带黑十字的绿色按钮放大地图;点击带横线的绿色按钮缩小地图;或者点击绿色箭头查看邻近地区的地图。


METAR-TAF: